Data for 08/01/2007

Time Sea-Level Adjusted Pressure Absolute Pressure Temperature Relative Humidity Dew Point   
(mb) (inHg) (mb) (inHg) (C) (F) (%) (C) (F)
00:05 1021 30.15 850 25.1 21.3 70.4 28 2 35.7
00:10 1021 30.15 850 25.1 20.9 69.7 30 2.9 37.2
00:15 1021 30.15 850 25.1 21 69.7 28 2.1 35.7
00:20 1021 30.15 850 25.1 21.1 70.1 27 1.7 35
00:25 1021 30.15 850 25.1 21.6 70.8 24 0.4 32.8
00:30 1021 30.15 850 25.1 21.7 71.1 26 1.6 34.9
00:35 1021 30.15 850 25.1 21.4 70.5 28 2.6 36.6
00:40 1021 30.15 850 25.1 21 69.7 28 1.9 35.4
00:45 1021 30.15 850 25.1 20.9 69.5 27 1.4 34.5
00:50 1021 30.15 850 25.1 20.9 69.7 28 2 35.6
00:55 1021 30.15 850 25.1 20.6 69.1 26 0.8 33.5
01:00 1021 30.15 850 25.1 20.7 69.3 26 0.7 33.2
01:05 1021 30.15 850 25.1 20.9 69.5 25 0.5 32.9
01:10 1021 30.15 850 25.1 20.7 69.2 28 1.7 35.1
01:15 1021 30.15 850 25.1 20.2 68.3 29 1.7 35
01:20 1021 30.15 851 25.13 19.8 67.6 29 1.3 34.3
01:25 1021 30.15 851 25.13 19.5 67.2 32 2.7 36.8
01:30 1021 30.15 851 25.13 19.2 66.6 31 1.7 35.1
01:35 1021 30.15 851 25.13 19.5 67 30 1.7 35.1
01:40 1021 30.15 851 25.13 19.5 67.1 30 1.5 34.6
01:45 1021 30.15 851 25.13 19.7 67.5 27 0.4 32.7
01:50 1021 30.15 851 25.13 20.1 68.1 28 1.2 34.2
01:55 1021 30.15 851 25.13 19.8 67.7 28 0.8 33.5
02:00 1021 30.15 851 25.13 19.9 67.7 27 0.6 33.2
02:05 1022 30.18 851 25.13 20 68 30 2 35.5
02:10 1022 30.18 851 25.13 20.1 68.2 25 -0.2 31.7
02:15 1022 30.18 851 25.13 20 68 26 0.2 32.3
02:20 1022 30.18 851 25.13 19.6 67.2 26 -0.2 31.7
02:25 1022 30.18 851 25.13 19.3 66.8 28 0.3 32.6
02:30 1022 30.18 851 25.13 19.2 66.5 28 0.1 32.3
02:35 1022 30.18 851 25.13 19.2 66.6 32 2.3 36.1
02:40 1022 30.18 851 25.13 18.7 65.7 29 0.6 33.1
02:45 1022 30.18 851 25.13 18.4 65.1 35 2.8 37.1
02:50 1022 30.18 851 25.13 18.3 65 29 0.2 32.3
02:55 1022 30.18 851 25.13 17.9 64.3 31 0.7 33.3
03:00 1022 30.18 851 25.13 17.6 63.6 32 0.9 33.6
03:05 1022 30.18 851 25.13 17.6 63.7 29 -0.4 31.3
03:10 1022 30.18 851 25.13 17.7 63.8 30 0.1 32.2
03:15 1022 30.18 851 25.13 17.3 63.2 33 1.1 33.9
03:20 1022 30.18 851 25.13 17.2 62.9 32 0.4 32.7
03:25 1022 30.18 851 25.13 17.1 62.7 31 -0.3 31.5
03:30 1022 30.18 851 25.13 17.5 63.6 27 -1.3 29.6
03:35 1022 30.18 851 25.13 17.8 64 33 1.4 34.4
03:40 1022 30.18 851 25.13 18.1 64.5 28 -0.8 30.5
03:45 1022 30.18 851 25.13 17.8 64 30 0.2 32.4
03:50 1022 30.18 851 25.13 17.2 62.9 31 0.1 32.1
03:55 1022 30.18 851 25.13 16.9 62.4 29 -1.1 30
04:00 1022 30.18 851 25.13 17.4 63.3 27 -1.8 28.8
04:05 1022 30.18 851 25.13 17.6 63.7 26 -2 28.4
04:10 1022 30.18 851 25.13 17.5 63.5 27 -1.4 29.5
04:15 1022 30.18 851 25.13 16.9 62.3 30 -0.9 30.3
04:20 1022 30.18 851 25.13 16.5 61.8 33 0.5 32.9
04:25 1022 30.18 851 25.13 16.6 61.8 30 -1.1 30
04:30 1022 30.18 851 25.13 16.6 61.8 29 -1.2 29.8
04:35 1022 30.18 851 25.13 16.7 62.1 28 -1.7 28.9
04:40 1022 30.18 851 25.13 17 62.6 28 -1.7 29
04:45 1022 30.18 851 25.13 17.3 63.1 26 -2.4 27.7
04:50 1022 30.18 851 25.13 17.6 63.7 25 -2.7 27.2
04:55 1022 30.18 851 25.13 17.9 64.3 25 -2.3 27.9
05:00 1022 30.18 851 25.13 17.2 63 30 -0.3 31.5
05:05 1022 30.18 851 25.13 16.7 62.1 30 -1 30.2
05:10 1022 30.18 851 25.13 16.2 61.2 31 -0.7 30.8
05:15 1022 30.18 851 25.13 15.9 60.6 33 -0.4 31.3
05:20 1022 30.18 851 25.13 15.7 60.3 29 -2 28.4
05:25 1022 30.18 851 25.13 15.7 60.3 31 -1.2 29.9
05:30 1022 30.18 852 25.16 15.4 59.8 31 -1.5 29.2
05:35 1022 30.18 852 25.16 15.6 60 30 -1.7 28.9
05:40 1022 30.18 852 25.16 15.6 60.1 38 1.3 34.3
05:45 1022 30.18 852 25.16 15.8 60.4 30 -1.7 28.9
05:50 1022 30.18 852 25.16 15.8 60.4 30 -1.6 29.1
05:55 1022 30.18 852 25.16 15.7 60.2 30 -1.7 28.9
06:00 1022 30.18 852 25.16 15.7 60.3 30 -1.8 28.8
06:05 1023 30.21 852 25.16 15.8 60.5 29 -2.2 28.1
06:10 1023 30.21 852 25.16 16.2 61.1 28 -2.2 28
06:15 1023 30.21 852 25.16 16 60.8 29 -2.1 28.3
06:20 1023 30.21 852 25.16 16.1 61 31 -0.8 30.5
06:25 1023 30.21 852 25.16 16.4 61.4 28 -2 28.4
06:30 1023 30.21 852 25.16 16.7 62.1 26 -2.8 27
06:35 1023 30.21 852 25.16 16.9 62.5 28 -1.7 28.9
06:40 1023 30.21 852 25.16 16.9 62.4 28 -1.5 29.3
06:45 1023 30.21 852 25.16 16.1 61 29 -1.7 28.9
06:50 1023 30.21 852 25.16 15.9 60.5 30 -1.6 29.1
06:55 1023 30.21 852 25.16 15.7 60.2 31 -1.3 29.6
07:00 1023 30.21 852 25.16 16.3 61.4 28 -2 28.4
07:05 1023 30.21 852 25.16 17.6 63.6 26 -2.2 28
07:10 1023 30.21 852 25.16 18.3 65 25 -1.9 28.5
07:15 1023 30.21 852 25.16 18.8 65.8 25 -1.3 29.7
07:20 1023 30.21 852 25.16 19.1 66.3 26 -0.9 30.4
07:25 1023 30.21 852 25.16 19 66.2 26 -0.7 30.7
07:30 1023 30.21 852 25.16 19 66.2 26 -0.8 30.5
07:35 1023 30.21 852 25.16 18.9 66.1 27 -0.5 31.2
07:40 1023 30.21 852 25.16 18.8 65.8 28 -0.1 31.9
07:45 1023 30.21 852 25.16 18.8 65.8 29 0.3 32.5
07:50 1023 30.21 852 25.16 18.7 65.7 31 1.2 34.2
07:55 1023 30.21 852 25.16 18.7 65.6 32 1.8 35.3
08:00 1023 30.21 852 25.16 18.6 65.5 34 2.5 36.5
08:05 1023 30.21 853 25.19 18.6 65.5 37 3.9 39
08:10 1023 30.21 852 25.16 18.6 65.5 40 4.9 40.9
08:15 1023 30.21 853 25.19 18.6 65.5 40 5 41
08:20 1023 30.21 852 25.16 18.6 65.4 41 5.3 41.5
08:25 1023 30.21 853 25.19 18.5 65.4 42 5.4 41.7
08:30 1023 30.21 853 25.19 18.6 65.5 44 6.1 43
08:35 1023 30.21 853 25.19 18.7 65.6 44 6.3 43.3
08:40 1024 30.24 853 25.19 18.8 65.8 45 6.6 43.9
08:45 1024 30.24 853 25.19 18.8 65.8 45 6.6 43.8
08:50 1024 30.24 853 25.19 18.8 65.8 46 6.9 44.4
08:55 1024 30.24 853 25.19 18.9 65.9 46 7.2 44.9
09:00 1024 30.24 853 25.19 18.9 66 47 7.3 45.2
09:05 1024 30.24 853 25.19 19 66.2 47 7.7 45.8
09:10 1023 30.21 853 25.19 19.1 66.3 48 8 46.4
09:15 1024 30.24 853 25.19 19.1 66.3 49 8.2 46.8
09:20 1024 30.24 853 25.19 19.1 66.4 50 8.5 47.3
09:25 1024 30.24 853 25.19 19.1 66.4 50 8.7 47.7
09:30 1023 30.21 853 25.19 19.1 66.4 51 8.8 47.9
09:35 1023 30.21 853 25.19 19.3 66.7 52 9.2 48.5
09:40 1024 30.24 853 25.19 19.4 66.9 51 9 48.3
09:45 1024 30.24 853 25.19 19.5 67 52 9.4 49
09:50 1024 30.24 853 25.19 19.5 67.1 52 9.6 49.3
09:55 1024 30.24 853 25.19 19.5 67.2 52 9.7 49.4
10:00 1024 30.24 853 25.19 19.6 67.3 53 9.9 49.9
10:05 1024 30.24 853 25.19 19.7 67.4 53 9.8 49.6
10:10 1024 30.24 853 25.19 19.9 67.9 53 10.2 50.4
10:15 1024 30.24 853 25.19 20.2 68.3 52 10.2 50.4
10:20 1024 30.24 853 25.19 20.2 68.4 53 10.4 50.7
10:25 1024 30.24 853 25.19 20.5 68.9 53 10.6 51.1
10:30 1024 30.24 853 25.19 20.5 68.8 54 10.9 51.6
10:35 1024 30.24 853 25.19 20.7 69.2 52 10.6 51.2
10:40 1024 30.24 853 25.19 20.6 69.2 52 10.7 51.2
10:45 1023 30.21 853 25.19 20.9 69.7 52 11 51.8
10:50 1024 30.24 853 25.19 20.7 69.2 52 10.7 51.2
10:55 1023 30.21 853 25.19 20.6 69.1 52 10.4 50.8
11:00 1023 30.21 853 25.19 20.7 69.2 52 10.5 50.9
11:05 1023 30.21 853 25.19 20.9 69.7 52 10.8 51.5
11:10 1023 30.21 853 25.19 20.9 69.6 53 11.2 52.1
11:15 1023 30.21 853 25.19 21.1 70 52 11 51.7
11:20 1023 30.21 853 25.19 21.4 70.5 51 11.1 51.9
11:25 1023 30.21 853 25.19 21.2 70.2 51 10.7 51.3
11:30 1023 30.21 853 25.19 21.4 70.6 50 10.8 51.4
11:35 1023 30.21 853 25.19 21.7 71.1 51 11.2 52.2
11:40 1023 30.21 853 25.19 21.4 70.5 52 11.2 52.1
11:45 1023 30.21 853 25.19 21.5 70.7 53 11.6 52.9
11:50 1023 30.21 853 25.19 21.4 70.5 53 11.6 52.8
11:55 1023 30.21 853 25.19 21.7 71 51 11.2 52.1
12:00 1023 30.21 853 25.19 21.7 71 52 11.5 52.7
12:05 1023 30.21 852 25.16 21.6 70.9 50 10.9 51.6
12:10 1023 30.21 852 25.16 21.9 71.4 52 11.8 53.2
12:15 1023 30.21 852 25.16 22 71.5 51 11.6 52.9
12:20 1023 30.21 852 25.16 21.7 71.1 53 11.8 53.3
12:25 1023 30.21 852 25.16 21.9 71.4 51 11.6 52.9
12:30 1023 30.21 852 25.16 21.9 71.5 53 12 53.6
12:35 1023 30.21 852 25.16 22.2 71.9 52 12.1 53.7
12:40 1023 30.21 852 25.16 22.2 71.9 51 11.8 53.3
12:45 1023 30.21 852 25.16 22.3 72.1 51 11.8 53.2
12:50 1023 30.21 852 25.16 22.3 72.1 50 11.6 52.9
12:55 1023 30.21 852 25.16 22.4 72.4 50 11.7 53.1
13:00 1023 30.21 852 25.16 22.7 72.8 50 11.8 53.2
13:05 1023 30.21 852 25.16 22.4 72.2 50 11.5 52.7
13:10 1023 30.21 852 25.16 22.7 72.8 49 11.7 53.1
13:15 1023 30.21 852 25.16 22.8 73.1 48 11.4 52.5
13:20 1023 30.21 852 25.16 22.9 73.3 48 11.4 52.5
13:25 1023 30.21 852 25.16 23 73.3 46 11.1 51.9
13:30 1023 30.21 852 25.16 22.9 73.2 47 11.3 52.3
13:35 1023 30.21 852 25.16 22.8 73 47 10.9 51.7
13:40 1023 30.21 852 25.16 22.9 73.2 47 11.1 51.9
13:45 1023 30.21 852 25.16 22.9 73.3 46 11 51.9
13:50 1023 30.21 852 25.16 23.2 73.8 46 11.1 52.1
13:55 1023 30.21 852 25.16 23.3 73.9 46 11.1 52
14:00 1022 30.18 852 25.16 23.4 74.2 45 10.8 51.5
14:05 1023 30.21 852 25.16 23.3 73.9 45 11 51.7
14:10 1023 30.21 852 25.16 23.4 74 45 10.9 51.5
14:15 1022 30.18 852 25.16 23.2 73.8 44 10.6 51.1
14:20 1022 30.18 852 25.16 23.3 73.9 45 10.7 51.3
14:25 1022 30.18 852 25.16 23.5 74.3 44 10.6 51.1
14:30 1022 30.18 851 25.13 23.4 74.1 45 10.9 51.5
14:35 1022 30.18 851 25.13 23.8 74.8 43 10.5 51
14:40 1022 30.18 851 25.13 23.6 74.5 43 10.4 50.7
14:45 1022 30.18 851 25.13 23.8 74.8 43 10.5 50.8
14:50 1022 30.18 851 25.13 23.9 75 43 10.6 51.1
14:55 1022 30.18 851 25.13 23.9 75 42 10.4 50.7
15:00 1022 30.18 851 25.13 23.7 74.6 42 10.4 50.6
15:05 1022 30.18 851 25.13 23.8 74.8 41 9.9 49.8
15:10 1022 30.18 851 25.13 24 75.2 42 10.4 50.7
15:15 1022 30.18 851 25.13 23.9 75.1 42 10.6 51.1
15:20 1022 30.18 851 25.13 24 75.3 41 10.1 50.2
15:25 1022 30.18 851 25.13 24 75.2 41 10 49.9
15:30 1022 30.18 851 25.13 24.2 75.6 41 10.4 50.7
15:35 1022 30.18 851 25.13 24.4 75.9 40 10 50.1
15:40 1022 30.18 851 25.13 24.3 75.7 41 10.3 50.5
15:45 1022 30.18 851 25.13 24.3 75.7 41 10.3 50.5
15:50 1022 30.18 851 25.13 24.3 75.7 40 10.1 50.1
15:55 1022 30.18 851 25.13 24.3 75.7 40 10 50
16:00 1022 30.18 851 25.13 24.3 75.8 39 9.9 49.8
16:05 1022 30.18 851 25.13 24.5 76 39 9.9 49.8
16:10 1022 30.18 851 25.13 24.2 75.6 40 9.9 49.8
16:15 1022 30.18 851 25.13 24.4 75.9 40 10.2 50.4
16:20 1022 30.18 851 25.13 24.6 76.4 38 9.7 49.5
16:25 1021 30.15 851 25.13 24.5 76.1 39 9.9 49.9
16:30 1021 30.15 851 25.13 24.5 76 39 10 50
16:35 1021 30.15 851 25.13 24.6 76.3 39 10 49.9
16:40 1021 30.15 850 25.1 24.7 76.5 39 10 49.9
16:45 1021 30.15 850 25.1 24.7 76.4 39 10 50
16:50 1021 30.15 850 25.1 24.7 76.4 39 9.9 49.8
16:55 1021 30.15 850 25.1 24.8 76.7 38 9.7 49.5
17:00 1021 30.15 850 25.1 24.9 76.8 38 9.7 49.5
17:05 1021 30.15 850 25.1 24.9 76.8 38 9.9 49.9
17:10 1021 30.15 850 25.1 25 77 37 9.6 49.3
17:15 1021 30.15 850 25.1 25 76.9 38 9.8 49.6
17:20 1021 30.15 850 25.1 24.9 76.8 38 9.7 49.5
17:25 1021 30.15 850 25.1 24.8 76.7 37 9.5 49.2
17:30 1021 30.15 850 25.1 24.9 76.9 37 9.5 49.2
17:35 1021 30.15 850 25.1 24.7 76.5 37 9.4 49
17:40 1021 30.15 850 25.1 24.8 76.6 37 9.4 48.9
17:45 1021 30.15 850 25.1 24.8 76.6 38 9.6 49.3
17:50 1021 30.15 850 25.1 24.9 76.8 36 9.2 48.5
17:55 1021 30.15 850 25.1 24.9 76.8 37 9.2 48.6
18:00 1021 30.15 850 25.1 24.7 76.4 38 9.5 49.1
18:05 1021 30.15 850 25.1 24.7 76.4 37 9.3 48.8
18:10 1021 30.15 850 25.1 24.8 76.6 36 9 48.2
18:15 1021 30.15 850 25.1 24.7 76.5 37 9.3 48.8
18:20 1021 30.15 850 25.1 24.6 76.3 37 9.3 48.7
18:25 1021 30.15 850 25.1 24.5 76.1 37 9.1 48.4
18:30 1021 30.15 850 25.1 24.6 76.2 37 9.1 48.4
18:35 1021 30.15 850 25.1 24.7 76.5 37 9.3 48.7
18:40 1021 30.15 850 25.1 24.5 76.1 37 9.1 48.4
18:45 1021 30.15 850 25.1 24.4 75.9 38 9.2 48.6
18:50 1021 30.15 850 25.1 24.4 75.8 38 9.2 48.6
18:55 1021 30.15 850 25.1 24.3 75.7 38 9.3 48.8
19:00 1021 30.15 850 25.1 24.2 75.6 38 9.3 48.8
19:05 1021 30.15 850 25.1 24.1 75.4 39 9.5 49.1
19:10 1021 30.15 850 25.1 24 75.2 39 9.5 49
19:15 1021 30.15 850 25.1 23.9 75.1 40 9.7 49.4
19:20 1021 30.15 850 25.1 23.8 74.9 40 9.6 49.2
19:25 1021 30.15 850 25.1 23.8 74.8 40 9.4 48.9
19:30 1021 30.15 850 25.1 23.7 74.6 40 9.4 48.9
19:35 1021 30.15 850 25.1 23.6 74.5 40 9.4 49
19:40 1021 30.15 850 25.1 23.6 74.5 40 9.4 48.9
19:45 1021 30.15 850 25.1 23.5 74.3 40 9.4 49
19:50 1021 30.15 850 25.1 23.4 74.1 40 9.4 48.9
19:55 1021 30.15 850 25.1 23.3 73.9 41 9.5 49.1
20:00 1021 30.15 850 25.1 23.2 73.8 41 9.4 48.8
20:05 1021 30.15 850 25.1 23.1 73.5 42 9.5 49.2
20:10 1021 30.15 850 25.1 22.9 73.3 42 9.5 49.2
20:15 1021 30.15 850 25.1 22.8 73 43 9.6 49.2
20:20 1021 30.15 850 25.1 22.6 72.8 43 9.6 49.3
20:25 1021 30.15 850 25.1 22.6 72.6 43 9.7 49.5
20:30 1021 30.15 850 25.1 22.4 72.4 44 9.7 49.4
20:35 1021 30.15 850 25.1 22.3 72.2 45 9.8 49.7
20:40 1021 30.15 850 25.1 22.2 71.9 45 9.8 49.7
20:45 1021 30.15 850 25.1 22.1 71.7 45 9.9 49.7
20:50 1021 30.15 850 25.1 21.9 71.4 46 10 50
20:55 1021 30.15 850 25.1 21.7 71.1 47 10 50
21:00 1021 30.15 850 25.1 21.7 71 47 10.1 50.1
21:05 1021 30.15 851 25.13 21.6 70.8 47 10.1 50.1
21:10 1021 30.15 851 25.13 21.5 70.6 48 10.1 50.2
21:15 1022 30.18 851 25.13 21.4 70.6 48 10.2 50.3
21:20 1022 30.18 851 25.13 21.3 70.4 49 10.2 50.3
21:25 1022 30.18 851 25.13 21.2 70.2 49 10.1 50.2
21:30 1022 30.18 851 25.13 21.2 70.1 49 10.2 50.3
21:35 1022 30.18 851 25.13 21.1 70 49 10.2 50.3
21:40 1022 30.18 851 25.13 21 69.8 49 10.1 50.2
21:45 1022 30.18 851 25.13 20.9 69.7 49 10.1 50.1
21:50 1022 30.18 851 25.13 20.9 69.6 49 10 50.1
21:55 1022 30.18 851 25.13 20.9 69.6 50 10.1 50.2
22:00 1022 30.18 851 25.13 20.8 69.5 49 9.9 49.9
22:05 1022 30.18 851 25.13 20.8 69.4 49 10 49.9
22:10 1022 30.18 851 25.13 20.7 69.3 50 10 49.9
22:15 1022 30.18 851 25.13 20.7 69.2 49 9.9 49.7
22:20 1022 30.18 851 25.13 20.6 69.1 50 9.9 49.8
22:25 1022 30.18 851 25.13 20.6 69 50 9.8 49.7
22:30 1022 30.18 851 25.13 20.5 68.9 50 9.8 49.6
22:35 1022 30.18 851 25.13 20.5 68.9 50 9.8 49.7
22:40 1022 30.18 851 25.13 20.5 68.9 50 9.8 49.6
22:45 1022 30.18 851 25.13 20.5 68.8 50 9.7 49.5
22:50 1022 30.18 851 25.13 20.4 68.7 50 9.7 49.5
22:55 1022 30.18 851 25.13 20.4 68.7 50 9.6 49.3
23:00 1022 30.18 851 25.13 20.3 68.6 50 9.6 49.2
23:05 1022 30.18 851 25.13 20.2 68.4 50 9.5 49
23:10 1022 30.18 851 25.13 20.2 68.3 50 9.5 49
23:15 1022 30.18 851 25.13 20.2 68.3 49 9.4 48.9
23:20 1022 30.18 851 25.13 20.1 68.2 49 9.2 48.6
23:25 1022 30.18 851 25.13 20.2 68.3 49 9.1 48.4
23:30 1022 30.18 851 25.13 20.1 68.2 49 9.2 48.5
23:35 1022 30.18 851 25.13 20 68.1 49 9.1 48.4
23:40 1022 30.18 852 25.16 20 68 49 9.1 48.3
23:45 1022 30.18 851 25.13 20.1 68.1 48 8.9 48
23:50 1022 30.18 851 25.13 20 68.1 48 8.9 48.1
23:55 1022 30.18 851 25.13 20 67.9 49 8.9 48.1
24:00 1022 30.18 851 25.13 19.8 67.7 49 9 48.1